sensor_id;sensor_type;location;lat;lon;timestamp;temperature;humidity
9824;DHT22;4951;50.778;7.196;2023-07-02T00:02:00;16.40;35.60
9824;DHT22;4951;50.778;7.196;2023-07-02T00:05:00;16.40;32.10
9824;DHT22;4951;50.778;7.196;2023-07-02T00:12:08;16.40;21.10
9824;DHT22;4951;50.778;7.196;2023-07-02T00:15:32;16.40;14.30
9824;DHT22;4951;50.778;7.196;2023-07-02T00:19:24;16.30;8.60
9824;DHT22;4951;50.778;7.196;2023-07-02T00:22:09;16.30;1.00
9824;DHT22;4951;50.778;7.196;2023-07-02T00:32:43;16.30;1.00
9824;DHT22;4951;50.778;7.196;2023-07-02T00:35:49;16.30;1.00
9824;DHT22;4951;50.778;7.196;2023-07-02T00:39:05;16.30;1.00
9824;DHT22;4951;50.778;7.196;2023-07-02T00:41:49;16.30;1.00
9824;DHT22;4951;50.778;7.196;2023-07-02T00:45:06;16.30;1.30
9824;DHT22;4951;50.778;7.196;2023-07-02T00:55:17;16.20;13.60
9824;DHT22;4951;50.778;7.196;2023-07-02T00:58:54;16.10;21.00
9824;DHT22;4951;50.778;7.196;2023-07-02T01:02:03;16.10;20.50
9824;DHT22;4951;50.778;7.196;2023-07-02T01:05:27;16.10;15.80
9824;DHT22;4951;50.778;7.196;2023-07-02T01:09:26;16.00;10.30
9824;DHT22;4951;50.778;7.196;2023-07-02T01:13:01;16.00;5.70
9824;DHT22;4951;50.778;7.196;2023-07-02T01:16:09;15.90;3.90
9824;DHT22;4951;50.778;7.196;2023-07-02T01:19:07;15.90;1.00
9824;DHT22;4951;50.778;7.196;2023-07-02T01:22:03;15.90;1.00
9824;DHT22;4951;50.778;7.196;2023-07-02T01:24:54;15.80;1.00
9824;DHT22;4951;50.778;7.196;2023-07-02T01:27:55;15.80;1.00
9824;DHT22;4951;50.778;7.196;2023-07-02T01:30:45;15.70;1.00
9824;DHT22;4951;50.778;7.196;2023-07-02T01:33:20;15.60;1.00
9824;DHT22;4951;50.778;7.196;2023-07-02T01:39:24;15.60;1.00
9824;DHT22;4951;50.778;7.196;2023-07-02T01:42:11;15.50;1.00
9824;DHT22;4951;50.778;7.196;2023-07-02T01:48:48;15.40;1.00
9824;DHT22;4951;50.778;7.196;2023-07-02T01:51:52;15.30;1.00
9824;DHT22;4951;50.778;7.196;2023-07-02T02:02:27;15.20;1.00
9824;DHT22;4951;50.778;7.196;2023-07-02T02:09:24;15.10;1.00
9824;DHT22;4951;50.778;7.196;2023-07-02T02:12:34;15.10;1.00
9824;DHT22;4951;50.778;7.196;2023-07-02T02:19:18;15.10;1.00
9824;DHT22;4951;50.778;7.196;2023-07-02T02:22:35;15.10;1.00
9824;DHT22;4951;50.778;7.196;2023-07-02T02:29:31;15.20;1.00
9824;DHT22;4951;50.778;7.196;2023-07-02T02:32:22;15.20;1.00
9824;DHT22;4951;50.778;7.196;2023-07-02T02:35:10;15.20;1.00
9824;DHT22;4951;50.778;7.196;2023-07-02T02:38:57;15.20;1.00
9824;DHT22;4951;50.778;7.196;2023-07-02T02:41:45;15.20;1.00
9824;DHT22;4951;50.778;7.196;2023-07-02T02:47:48;15.20;1.00
9824;DHT22;4951;50.778;7.196;2023-07-02T02:51:04;15.20;1.00
9824;DHT22;4951;50.778;7.196;2023-07-02T02:54:18;15.30;1.00
9824;DHT22;4951;50.778;7.196;2023-07-02T02:57:37;15.30;1.00
9824;DHT22;4951;50.778;7.196;2023-07-02T03:01:00;15.30;1.00
9824;DHT22;4951;50.778;7.196;2023-07-02T03:04:32;15.30;1.00
9824;DHT22;4951;50.778;7.196;2023-07-02T03:07:19;15.30;1.00
9824;DHT22;4951;50.778;7.196;2023-07-02T03:10:09;15.30;1.00
9824;DHT22;4951;50.778;7.196;2023-07-02T03:16:13;15.30;1.00
9824;DHT22;4951;50.778;7.196;2023-07-02T03:19:30;15.40;1.00
9824;DHT22;4951;50.778;7.196;2023-07-02T03:22:42;15.40;1.00
9824;DHT22;4951;50.778;7.196;2023-07-02T03:25:52;15.40;1.00
9824;DHT22;4951;50.778;7.196;2023-07-02T03:28:40;15.40;1.00
9824;DHT22;4951;50.778;7.196;2023-07-02T03:36:16;15.40;1.00
9824;DHT22;4951;50.778;7.196;2023-07-02T03:39:56;15.40;1.00
9824;DHT22;4951;50.778;7.196;2023-07-02T03:43:21;15.40;1.00
9824;DHT22;4951;50.778;7.196;2023-07-02T03:46:04;15.40;1.00
9824;DHT22;4951;50.778;7.196;2023-07-02T03:49:05;15.40;1.00
9824;DHT22;4951;50.778;7.196;2023-07-02T03:59:56;15.40;1.00
9824;DHT22;4951;50.778;7.196;2023-07-02T04:03:01;15.50;1.00
9824;DHT22;4951;50.778;7.196;2023-07-02T04:06:40;15.50;1.00
9824;DHT22;4951;50.778;7.196;2023-07-02T04:09:25;15.60;1.00
9824;DHT22;4951;50.778;7.196;2023-07-02T04:12:11;15.60;1.00
9824;DHT22;4951;50.778;7.196;2023-07-02T04:15:13;15.60;1.00
9824;DHT22;4951;50.778;7.196;2023-07-02T04:18:38;15.70;1.00
9824;DHT22;4951;50.778;7.196;2023-07-02T04:21:56;15.70;1.00
9824;DHT22;4951;50.778;7.196;2023-07-02T04:24:41;15.80;1.00
9824;DHT22;4951;50.778;7.196;2023-07-02T04:27:47;15.80;1.00
9824;DHT22;4951;50.778;7.196;2023-07-02T04:34:37;15.80;1.00
9824;DHT22;4951;50.778;7.196;2023-07-02T04:38:13;15.90;1.00
9824;DHT22;4951;50.778;7.196;2023-07-02T04:41:08;15.80;1.00
9824;DHT22;4951;50.778;7.196;2023-07-02T04:43:50;15.90;1.00
9824;DHT22;4951;50.778;7.196;2023-07-02T04:54:21;15.90;1.00
9824;DHT22;4951;50.778;7.196;2023-07-02T04:57:26;15.90;1.00
9824;DHT22;4951;50.778;7.196;2023-07-02T05:00:24;15.90;1.00
9824;DHT22;4951;50.778;7.196;2023-07-02T05:03:46;16.00;1.00
9824;DHT22;4951;50.778;7.196;2023-07-02T05:06:53;16.00;99.90
9824;DHT22;4951;50.778;7.196;2023-07-02T05:09:53;15.90;99.90
9824;DHT22;4951;50.778;7.196;2023-07-02T05:13:20;16.00;99.90
9824;DHT22;4951;50.778;7.196;2023-07-02T05:16:07;16.00;99.90
9824;DHT22;4951;50.778;7.196;2023-07-02T05:19:11;16.00;99.90
9824;DHT22;4951;50.778;7.196;2023-07-02T05:25:46;16.10;99.90
9824;DHT22;4951;50.778;7.196;2023-07-02T05:31:39;16.20;99.90
9824;DHT22;4951;50.778;7.196;2023-07-02T05:34:26;16.20;99.90
9824;DHT22;4951;50.778;7.196;2023-07-02T05:37:47;16.20;99.90
9824;DHT22;4951;50.778;7.196;2023-07-02T05:40:48;16.30;99.90
9824;DHT22;4951;50.778;7.196;2023-07-02T05:47:34;16.50;99.90
9824;DHT22;4951;50.778;7.196;2023-07-02T05:50:47;16.50;99.90
9824;DHT22;4951;50.778;7.196;2023-07-02T05:57:00;16.70;8.30
9824;DHT22;4951;50.778;7.196;2023-07-02T06:00:00;16.80;1.00
9824;DHT22;4951;50.778;7.196;2023-07-02T06:03:23;16.80;1.00
9824;DHT22;4951;50.778;7.196;2023-07-02T06:06:57;16.90;1.00
9824;DHT22;4951;50.778;7.196;2023-07-02T06:09:41;16.90;1.00
9824;DHT22;4951;50.778;7.196;2023-07-02T06:12:42;17.00;1.00
9824;DHT22;4951;50.778;7.196;2023-07-02T06:15:57;17.10;1.00
9824;DHT22;4951;50.778;7.196;2023-07-02T06:18:58;17.10;1.00
9824;DHT22;4951;50.778;7.196;2023-07-02T06:22:03;17.10;99.90
9824;DHT22;4951;50.778;7.196;2023-07-02T06:28:06;17.10;1.00
9824;DHT22;4951;50.778;7.196;2023-07-02T06:30:52;17.20;1.00
9824;DHT22;4951;50.778;7.196;2023-07-02T06:34:19;17.30;1.00
9824;DHT22;4951;50.778;7.196;2023-07-02T06:41:00;17.50;99.90
9824;DHT22;4951;50.778;7.196;2023-07-02T06:44:22;17.60;1.00
9824;DHT22;4951;50.778;7.196;2023-07-02T06:47:49;17.60;99.90
9824;DHT22;4951;50.778;7.196;2023-07-02T06:50:53;17.60;99.90
9824;DHT22;4951;50.778;7.196;2023-07-02T06:57:59;17.80;99.90
9824;DHT22;4951;50.778;7.196;2023-07-02T07:11:30;18.20;99.90
9824;DHT22;4951;50.778;7.196;2023-07-02T07:14:45;18.20;1.00
9824;DHT22;4951;50.778;7.196;2023-07-02T07:18:22;18.20;1.00
9824;DHT22;4951;50.778;7.196;2023-07-02T07:25:31;18.50;99.90
9824;DHT22;4951;50.778;7.196;2023-07-02T07:32:15;18.60;99.90
9824;DHT22;4951;50.778;7.196;2023-07-02T07:36:21;18.70;99.90
9824;DHT22;4951;50.778;7.196;2023-07-02T07:50:16;18.90;1.00
9824;DHT22;4951;50.778;7.196;2023-07-02T07:53:41;19.00;1.00
9824;DHT22;4951;50.778;7.196;2023-07-02T07:57:10;19.10;1.00
9824;DHT22;4951;50.778;7.196;2023-07-02T08:00:30;19.10;1.00
9824;DHT22;4951;50.778;7.196;2023-07-02T08:03:59;19.30;1.00
9824;DHT22;4951;50.778;7.196;2023-07-02T08:06:56;19.40;99.90
9824;DHT22;4951;50.778;7.196;2023-07-02T08:10:03;19.50;99.90
9824;DHT22;4951;50.778;7.196;2023-07-02T08:20:46;19.80;1.00
9824;DHT22;4951;50.778;7.196;2023-07-02T08:24:56;20.10;99.90
9824;DHT22;4951;50.778;7.196;2023-07-02T08:36:26;20.50;99.90
9824;DHT22;4951;50.778;7.196;2023-07-02T08:44:24;20.40;1.00
9824;DHT22;4951;50.778;7.196;2023-07-02T08:47:26;20.50;1.00
9824;DHT22;4951;50.778;7.196;2023-07-02T08:50:24;20.60;1.00
9824;DHT22;4951;50.778;7.196;2023-07-02T08:57:29;20.70;1.00
9824;DHT22;4951;50.778;7.196;2023-07-02T09:01:25;20.80;1.00
9824;DHT22;4951;50.778;7.196;2023-07-02T09:11:34;20.20;1.00
9824;DHT22;4951;50.778;7.196;2023-07-02T09:19:29;20.40;1.00
9824;DHT22;4951;50.778;7.196;2023-07-02T09:23:19;20.60;1.00
9824;DHT22;4951;50.778;7.196;2023-07-02T09:27:33;20.60;1.00
9824;DHT22;4951;50.778;7.196;2023-07-02T09:31:06;20.70;1.00
9824;DHT22;4951;50.778;7.196;2023-07-02T09:34:15;20.80;1.00
9824;DHT22;4951;50.778;7.196;2023-07-02T09:41:13;20.90;1.00
9824;DHT22;4951;50.778;7.196;2023-07-02T09:43:47;20.60;1.00
9824;DHT22;4951;50.778;7.196;2023-07-02T09:47:27;20.50;1.00
9824;DHT22;4951;50.778;7.196;2023-07-02T09:50:43;20.40;1.00
9824;DHT22;4951;50.778;7.196;2023-07-02T09:53:38;20.40;1.00
9824;DHT22;4951;50.778;7.196;2023-07-02T09:56:21;20.60;1.00
9824;DHT22;4951;50.778;7.196;2023-07-02T09:59:24;20.80;1.00
9824;DHT22;4951;50.778;7.196;2023-07-02T10:02:15;21.00;1.00
9824;DHT22;4951;50.778;7.196;2023-07-02T10:04:47;21.20;1.00
9824;DHT22;4951;50.778;7.196;2023-07-02T10:07:26;21.20;1.00
9824;DHT22;4951;50.778;7.196;2023-07-02T10:09:57;21.30;1.00
9824;DHT22;4951;50.778;7.196;2023-07-02T10:15:46;21.60;1.00
9824;DHT22;4951;50.778;7.196;2023-07-02T10:19:11;21.80;1.00
9824;DHT22;4951;50.778;7.196;2023-07-02T10:22:41;22.10;1.00
9824;DHT22;4951;50.778;7.196;2023-07-02T10:26:24;22.10;1.00
9824;DHT22;4951;50.778;7.196;2023-07-02T10:29:58;22.20;1.00
9824;DHT22;4951;50.778;7.196;2023-07-02T10:33:36;22.00;99.90
9824;DHT22;4951;50.778;7.196;2023-07-02T10:40:12;21.90;99.90
9824;DHT22;4951;50.778;7.196;2023-07-02T10:42:58;22.00;99.90
9824;DHT22;4951;50.778;7.196;2023-07-02T10:45:59;22.20;99.90
9824;DHT22;4951;50.778;7.196;2023-07-02T10:48:57;22.40;99.90
9824;DHT22;4951;50.778;7.196;2023-07-02T10:51:39;22.50;99.90
9824;DHT22;4951;50.778;7.196;2023-07-02T10:54:46;22.40;99.90
9824;DHT22;4951;50.778;7.196;2023-07-02T10:57:32;22.40;99.90
9824;DHT22;4951;50.778;7.196;2023-07-02T11:04:21;22.10;99.90
9824;DHT22;4951;50.778;7.196;2023-07-02T11:07:37;21.90;99.90
9824;DHT22;4951;50.778;7.196;2023-07-02T11:10:45;21.80;99.90
9824;DHT22;4951;50.778;7.196;2023-07-02T11:14:39;21.90;99.90
9824;DHT22;4951;50.778;7.196;2023-07-02T11:17:35;22.10;99.90
9824;DHT22;4951;50.778;7.196;2023-07-02T11:20:14;22.10;99.90
9824;DHT22;4951;50.778;7.196;2023-07-02T11:23:02;22.00;99.90
9824;DHT22;4951;50.778;7.196;2023-07-02T11:26:07;21.90;99.90
9824;DHT22;4951;50.778;7.196;2023-07-02T11:28:53;21.80;99.90
9824;DHT22;4951;50.778;7.196;2023-07-02T11:32:11;21.80;99.90
9824;DHT22;4951;50.778;7.196;2023-07-02T11:35:22;22.00;99.90
9824;DHT22;4951;50.778;7.196;2023-07-02T11:38:48;22.20;99.90
9824;DHT22;4951;50.778;7.196;2023-07-02T11:42:36;22.20;99.90
9824;DHT22;4951;50.778;7.196;2023-07-02T11:46:09;22.20;99.90
9824;DHT22;4951;50.778;7.196;2023-07-02T11:56:26;21.80;99.90
9824;DHT22;4951;50.778;7.196;2023-07-02T11:59:16;21.70;99.90
9824;DHT22;4951;50.778;7.196;2023-07-02T12:05:15;21.80;99.90
9824;DHT22;4951;50.778;7.196;2023-07-02T12:11:05;22.30;99.90
9824;DHT22;4951;50.778;7.196;2023-07-02T12:14:43;22.70;99.90
9824;DHT22;4951;50.778;7.196;2023-07-02T12:17:26;23.00;99.90
9824;DHT22;4951;50.778;7.196;2023-07-02T12:20:41;23.10;99.90
9824;DHT22;4951;50.778;7.196;2023-07-02T12:23:26;23.10;99.90
9824;DHT22;4951;50.778;7.196;2023-07-02T12:26:13;23.10;99.90
9824;DHT22;4951;50.778;7.196;2023-07-02T12:28:58;23.10;99.90
9824;DHT22;4951;50.778;7.196;2023-07-02T12:31:58;23.10;99.90
9824;DHT22;4951;50.778;7.196;2023-07-02T12:34:46;23.20;99.90
9824;DHT22;4951;50.778;7.196;2023-07-02T12:44:40;23.40;99.90
9824;DHT22;4951;50.778;7.196;2023-07-02T12:47:30;23.40;99.90
9824;DHT22;4951;50.778;7.196;2023-07-02T12:50:32;23.40;99.90
9824;DHT22;4951;50.778;7.196;2023-07-02T12:53:52;23.40;99.90
9824;DHT22;4951;50.778;7.196;2023-07-02T12:56:29;23.40;99.90
9824;DHT22;4951;50.778;7.196;2023-07-02T13:03:47;23.60;99.90
9824;DHT22;4951;50.778;7.196;2023-07-02T13:07:18;23.70;99.90
9824;DHT22;4951;50.778;7.196;2023-07-02T13:10:40;23.70;99.90
9824;DHT22;4951;50.778;7.196;2023-07-02T13:13:24;23.80;99.90
9824;DHT22;4951;50.778;7.196;2023-07-02T13:15:51;23.90;99.90
9824;DHT22;4951;50.778;7.196;2023-07-02T13:18:18;24.00;89.30
9824;DHT22;4951;50.778;7.196;2023-07-02T13:20:49;24.00;76.50
9824;DHT22;4951;50.778;7.196;2023-07-02T13:23:16;24.00;75.00
9824;DHT22;4951;50.778;7.196;2023-07-02T13:25:43;24.10;76.60
9824;DHT22;4951;50.778;7.196;2023-07-02T13:28:24;24.20;69.60
9824;DHT22;4951;50.778;7.196;2023-07-02T13:33:49;24.90;61.00
9824;DHT22;4951;50.778;7.196;2023-07-02T13:36:18;24.80;25.10
9824;DHT22;4951;50.778;7.196;2023-07-02T13:38:48;24.80;28.40
9824;DHT22;4951;50.778;7.196;2023-07-02T13:41:16;25.00;28.80
9824;DHT22;4951;50.778;7.196;2023-07-02T13:43:43;24.90;13.20
9824;DHT22;4951;50.778;7.196;2023-07-02T13:46:20;24.80;14.80
9824;DHT22;4951;50.778;7.196;2023-07-02T13:48:48;24.60;13.60
9824;DHT22;4951;50.778;7.196;2023-07-02T13:51:15;24.40;20.20
9824;DHT22;4951;50.778;7.196;2023-07-02T13:53:49;24.40;26.40
9824;DHT22;4951;50.778;7.196;2023-07-02T13:56:26;24.50;29.40
9824;DHT22;4951;50.778;7.196;2023-07-02T13:59:18;25.00;15.10
9824;DHT22;4951;50.778;7.196;2023-07-02T14:05:35;25.00;1.00
9824;DHT22;4951;50.778;7.196;2023-07-02T14:08:46;24.40;1.00
9824;DHT22;4951;50.778;7.196;2023-07-02T14:11:47;24.20;1.00
9824;DHT22;4951;50.778;7.196;2023-07-02T14:15:09;24.00;1.00
9824;DHT22;4951;50.778;7.196;2023-07-02T14:18:20;23.80;1.00
9824;DHT22;4951;50.778;7.196;2023-07-02T14:21:20;23.80;9.50
9824;DHT22;4951;50.778;7.196;2023-07-02T14:24:28;24.50;22.20
9824;DHT22;4951;50.778;7.196;2023-07-02T14:31:06;26.10;1.00
9824;DHT22;4951;50.778;7.196;2023-07-02T14:41:01;25.80;1.00
9824;DHT22;4951;50.778;7.196;2023-07-02T14:53:42;27.20;1.00
9824;DHT22;4951;50.778;7.196;2023-07-02T14:56:40;27.70;1.00
9824;DHT22;4951;50.778;7.196;2023-07-02T15:03:44;27.80;1.00
9824;DHT22;4951;50.778;7.196;2023-07-02T15:07:07;27.60;1.00
9824;DHT22;4951;50.778;7.196;2023-07-02T15:13:25;27.50;1.00
9824;DHT22;4951;50.778;7.196;2023-07-02T15:16:55;27.80;1.00
9824;DHT22;4951;50.778;7.196;2023-07-02T15:19:31;27.40;1.00
9824;DHT22;4951;50.778;7.196;2023-07-02T15:21:58;27.10;1.00
9824;DHT22;4951;50.778;7.196;2023-07-02T15:24:34;27.20;1.00
9824;DHT22;4951;50.778;7.196;2023-07-02T15:27:10;27.40;1.00
9824;DHT22;4951;50.778;7.196;2023-07-02T15:29:47;27.50;1.00
9824;DHT22;4951;50.778;7.196;2023-07-02T15:32:15;27.00;1.00
9824;DHT22;4951;50.778;7.196;2023-07-02T15:35:10;26.40;1.00
9824;DHT22;4951;50.778;7.196;2023-07-02T15:38:04;25.70;1.00
9824;DHT22;4951;50.778;7.196;2023-07-02T15:40:46;25.30;1.00
9824;DHT22;4951;50.778;7.196;2023-07-02T15:43:58;25.50;1.00
9824;DHT22;4951;50.778;7.196;2023-07-02T15:47:23;26.30;1.00
9824;DHT22;4951;50.778;7.196;2023-07-02T15:54:31;27.30;1.00
9824;DHT22;4951;50.778;7.196;2023-07-02T15:57:53;28.00;1.00
9824;DHT22;4951;50.778;7.196;2023-07-02T16:04:52;27.60;1.00
9824;DHT22;4951;50.778;7.196;2023-07-02T16:08:05;27.90;1.00
9824;DHT22;4951;50.778;7.196;2023-07-02T16:11:20;27.60;1.00
9824;DHT22;4951;50.778;7.196;2023-07-02T16:14:29;26.80;1.00
9824;DHT22;4951;50.778;7.196;2023-07-02T16:22:01;26.80;1.00
9824;DHT22;4951;50.778;7.196;2023-07-02T16:24:42;27.30;1.00
9824;DHT22;4951;50.778;7.196;2023-07-02T16:27:33;27.30;1.00
9824;DHT22;4951;50.778;7.196;2023-07-02T16:31:26;27.40;1.00
9824;DHT22;4951;50.778;7.196;2023-07-02T16:34:47;27.40;1.00
9824;DHT22;4951;50.778;7.196;2023-07-02T16:37:59;26.80;1.00
9824;DHT22;4951;50.778;7.196;2023-07-02T16:41:05;26.10;1.00
9824;DHT22;4951;50.778;7.196;2023-07-02T16:44:12;25.60;1.00
9824;DHT22;4951;50.778;7.196;2023-07-02T16:47:46;25.10;1.00
9824;DHT22;4951;50.778;7.196;2023-07-02T16:54:31;24.70;1.00
9824;DHT22;4951;50.778;7.196;2023-07-02T16:57:04;24.50;1.00
9824;DHT22;4951;50.778;7.196;2023-07-02T17:00:10;24.40;1.00
9824;DHT22;4951;50.778;7.196;2023-07-02T17:03:24;24.20;1.00
9824;DHT22;4951;50.778;7.196;2023-07-02T17:06:39;24.10;1.00
9824;DHT22;4951;50.778;7.196;2023-07-02T17:09:37;23.90;1.00
9824;DHT22;4951;50.778;7.196;2023-07-02T17:13:07;23.80;1.00
9824;DHT22;4951;50.778;7.196;2023-07-02T17:17:09;23.50;1.00
9824;DHT22;4951;50.778;7.196;2023-07-02T17:20:13;23.40;1.00
9824;DHT22;4951;50.778;7.196;2023-07-02T17:24:07;23.40;1.00
9824;DHT22;4951;50.778;7.196;2023-07-02T17:27:12;23.40;1.00
9824;DHT22;4951;50.778;7.196;2023-07-02T17:30:12;23.50;1.00
9824;DHT22;4951;50.778;7.196;2023-07-02T17:35:53;23.50;1.00
9824;DHT22;4951;50.778;7.196;2023-07-02T17:38:43;23.30;1.00
9824;DHT22;4951;50.778;7.196;2023-07-02T17:41:32;23.10;1.00
9824;DHT22;4951;50.778;7.196;2023-07-02T17:47:47;23.00;1.00
9824;DHT22;4951;50.778;7.196;2023-07-02T17:50:36;22.90;1.00
9824;DHT22;4951;50.778;7.196;2023-07-02T17:53:19;22.90;1.00
9824;DHT22;4951;50.778;7.196;2023-07-02T17:56:26;23.00;1.00
9824;DHT22;4951;50.778;7.196;2023-07-02T17:59:37;23.00;1.00
9824;DHT22;4951;50.778;7.196;2023-07-02T18:02:55;23.00;1.00
9824;DHT22;4951;50.778;7.196;2023-07-02T18:09:14;23.00;1.00
9824;DHT22;4951;50.778;7.196;2023-07-02T18:12:16;22.90;1.00
9824;DHT22;4951;50.778;7.196;2023-07-02T18:15:15;22.70;1.00
9824;DHT22;4951;50.778;7.196;2023-07-02T18:17:57;22.50;1.00
9824;DHT22;4951;50.778;7.196;2023-07-02T18:20:48;22.30;1.00
9824;DHT22;4951;50.778;7.196;2023-07-02T18:23:34;22.20;1.00
9824;DHT22;4951;50.778;7.196;2023-07-02T18:26:46;22.10;1.00
9824;DHT22;4951;50.778;7.196;2023-07-02T18:29:33;22.00;1.00
9824;DHT22;4951;50.778;7.196;2023-07-02T18:32:12;22.00;3.80
9824;DHT22;4951;50.778;7.196;2023-07-02T18:35:03;21.90;7.60
9824;DHT22;4951;50.778;7.196;2023-07-02T18:38:00;21.90;11.40
9824;DHT22;4951;50.778;7.196;2023-07-02T18:40:58;21.80;14.50
9824;DHT22;4951;50.778;7.196;2023-07-02T18:44:23;21.70;19.10
9824;DHT22;4951;50.778;7.196;2023-07-02T18:47:23;21.70;22.70
9824;DHT22;4951;50.778;7.196;2023-07-02T18:50:48;21.60;29.30
9824;DHT22;4951;50.778;7.196;2023-07-02T18:53:42;21.50;34.10
9824;DHT22;4951;50.778;7.196;2023-07-02T18:56:25;21.40;42.40
9824;DHT22;4951;50.778;7.196;2023-07-02T19:02:39;21.30;48.30
9824;DHT22;4951;50.778;7.196;2023-07-02T19:09:50;21.20;58.40
9824;DHT22;4951;50.778;7.196;2023-07-02T19:12:08;21.10;65.90
9824;DHT22;4951;50.778;7.196;2023-07-02T19:15:08;21.10;74.50
9824;DHT22;4951;50.778;7.196;2023-07-02T19:18:14;21.00;83.40
9824;DHT22;4951;50.778;7.196;2023-07-02T19:21:36;21.00;89.60
9824;DHT22;4951;50.778;7.196;2023-07-02T19:27:59;20.80;96.70
9824;DHT22;4951;50.778;7.196;2023-07-02T19:34:37;20.70;99.90
9824;DHT22;4951;50.778;7.196;2023-07-02T19:37:21;20.70;99.90
9824;DHT22;4951;50.778;7.196;2023-07-02T19:40:14;20.60;99.90
9824;DHT22;4951;50.778;7.196;2023-07-02T19:43:11;20.60;99.90
9824;DHT22;4951;50.778;7.196;2023-07-02T19:46:41;20.50;99.90
9824;DHT22;4951;50.778;7.196;2023-07-02T19:53:05;20.40;99.90
9824;DHT22;4951;50.778;7.196;2023-07-02T19:56:49;20.30;99.90
9824;DHT22;4951;50.778;7.196;2023-07-02T20:03:46;20.30;99.90
9824;DHT22;4951;50.778;7.196;2023-07-02T20:13:23;20.20;99.90
9824;DHT22;4951;50.778;7.196;2023-07-02T20:16:15;20.20;99.90
9824;DHT22;4951;50.778;7.196;2023-07-02T20:19:23;20.20;99.90
9824;DHT22;4951;50.778;7.196;2023-07-02T20:22:33;20.20;99.90
9824;DHT22;4951;50.778;7.196;2023-07-02T20:25:16;20.20;99.90
9824;DHT22;4951;50.778;7.196;2023-07-02T20:28:21;20.20;99.90
9824;DHT22;4951;50.778;7.196;2023-07-02T20:31:23;20.20;99.90
9824;DHT22;4951;50.778;7.196;2023-07-02T20:34:58;20.20;99.90
9824;DHT22;4951;50.778;7.196;2023-07-02T20:37:53;20.20;99.90
9824;DHT22;4951;50.778;7.196;2023-07-02T20:44:37;20.10;99.90
9824;DHT22;4951;50.778;7.196;2023-07-02T20:47:34;20.10;99.90
9824;DHT22;4951;50.778;7.196;2023-07-02T20:54:23;20.10;99.90
9824;DHT22;4951;50.778;7.196;2023-07-02T20:58:00;20.10;99.90
9824;DHT22;4951;50.778;7.196;2023-07-02T21:01:32;20.10;99.90
9824;DHT22;4951;50.778;7.196;2023-07-02T21:04:58;20.10;99.90
9824;DHT22;4951;50.778;7.196;2023-07-02T21:08:01;20.00;99.90
9824;DHT22;4951;50.778;7.196;2023-07-02T21:10:54;20.00;99.90
9824;DHT22;4951;50.778;7.196;2023-07-02T21:17:34;19.90;99.90
9824;DHT22;4951;50.778;7.196;2023-07-02T21:23:59;19.80;99.90
9824;DHT22;4951;50.778;7.196;2023-07-02T21:26:55;19.80;99.90
9824;DHT22;4951;50.778;7.196;2023-07-02T21:29:51;19.70;99.90
9824;DHT22;4951;50.778;7.196;2023-07-02T21:36:18;19.60;99.90
9824;DHT22;4951;50.778;7.196;2023-07-02T21:39:23;19.60;99.90
9824;DHT22;4951;50.778;7.196;2023-07-02T21:42:36;19.60;99.90
9824;DHT22;4951;50.778;7.196;2023-07-02T21:45:55;19.60;99.90
9824;DHT22;4951;50.778;7.196;2023-07-02T21:48:40;19.50;99.90
9824;DHT22;4951;50.778;7.196;2023-07-02T21:51:36;19.40;99.90
9824;DHT22;4951;50.778;7.196;2023-07-02T21:54:18;19.40;99.90
9824;DHT22;4951;50.778;7.196;2023-07-02T21:57:15;19.30;99.90
9824;DHT22;4951;50.778;7.196;2023-07-02T22:03:18;19.10;99.90
9824;DHT22;4951;50.778;7.196;2023-07-02T22:06:53;19.00;99.90
9824;DHT22;4951;50.778;7.196;2023-07-02T22:09:59;18.90;99.90
9824;DHT22;4951;50.778;7.196;2023-07-02T22:13:02;18.80;99.90
9824;DHT22;4951;50.778;7.196;2023-07-02T22:16:19;18.70;99.90
9824;DHT22;4951;50.778;7.196;2023-07-02T22:29:40;18.10;99.90
9824;DHT22;4951;50.778;7.196;2023-07-02T22:35:46;17.90;99.90
9824;DHT22;4951;50.778;7.196;2023-07-02T22:41:54;17.70;99.90
9824;DHT22;4951;50.778;7.196;2023-07-02T22:46:00;17.60;99.90
9824;DHT22;4951;50.778;7.196;2023-07-02T22:49:01;17.50;99.90
9824;DHT22;4951;50.778;7.196;2023-07-02T22:51:55;17.50;99.90
9824;DHT22;4951;50.778;7.196;2023-07-02T22:55:04;17.40;99.90
9824;DHT22;4951;50.778;7.196;2023-07-02T22:58:20;17.40;99.90
9824;DHT22;4951;50.778;7.196;2023-07-02T23:01:42;17.30;99.90
9824;DHT22;4951;50.778;7.196;2023-07-02T23:05:06;17.20;99.90
9824;DHT22;4951;50.778;7.196;2023-07-02T23:12:26;16.90;99.90
9824;DHT22;4951;50.778;7.196;2023-07-02T23:16:14;16.70;99.90
9824;DHT22;4951;50.778;7.196;2023-07-02T23:23:19;16.50;99.90
9824;DHT22;4951;50.778;7.196;2023-07-02T23:26:56;16.40;99.90
9824;DHT22;4951;50.778;7.196;2023-07-02T23:36:43;16.30;99.90
9824;DHT22;4951;50.778;7.196;2023-07-02T23:39:43;16.30;99.90
9824;DHT22;4951;50.778;7.196;2023-07-02T23:43:24;16.30;99.90
9824;DHT22;4951;50.778;7.196;2023-07-02T23:46:10;16.30;99.90
9824;DHT22;4951;50.778;7.196;2023-07-02T23:49:10;16.30;99.90
9824;DHT22;4951;50.778;7.196;2023-07-02T23:55:34;16.20;99.90
9824;DHT22;4951;50.778;7.196;2023-07-02T23:58:40;16.30;99.90
